This is the latest recevied weather packets stored in our database for station/object JA6CFI-13. If no packets are shown the sender has not sent any weather packets the latest 10 day(s).
| Time | Temp. | Humidity | Pressure | Rain* | Wind** | Luminosity | Snow |
|---|---|---|---|---|---|---|---|
| 1777935320 | 16.67° C | 71% | 1019.9 hPa | 0 mm | - | - | - |
| 1777934541 | 15.56° C | 75% | 1019.8 hPa | 0 mm | - | - | - |
| 1777933761 | 14.44° C | 81% | 1019.8 hPa | 0 mm | - | - | - |
| 1777932980 | 13.33° C | 88% | 1019.9 hPa | 0 mm | - | - | - |
| 1777932201 | 12.78° C | 91% | 1019.8 hPa | 0 mm | - | - | - |
| 1777931421 | 11.67° C | 93% | 1019.8 hPa | 0 mm | - | - | - |
| 1777930640 | 11.11° C | 93% | 1019.7 hPa | 0 mm | - | - | - |
| 1777929862 | 10.56° C | 93% | 1019.7 hPa | 0 mm | - | - | - |
| 1777929081 | 10.56° C | 93% | 1019.6 hPa | 0 mm | - | - | - |
| 1777928301 | 10.56° C | 93% | 1019.3 hPa | 0 mm | - | - | - |
| 1777927521 | 10.56° C | 93% | 1019.2 hPa | 0 mm | - | - | - |
| 1777926740 | 10.56° C | 93% | 1019.2 hPa | 0 mm | - | - | - |
| 1777925962 | 10.56° C | 93% | 1019.1 hPa | 0 mm | - | - | - |
| 1777925181 | 10.56° C | 93% | 1019 hPa | 0 mm | - | - | - |
| 1777924401 | 10.56° C | 93% | 1018.8 hPa | 0 mm | - | - | - |
| 1777923620 | 10.56° C | 93% | 1018.9 hPa | 0 mm | - | - | - |
| 1777922840 | 10.56° C | 93% | 1018.7 hPa | 0 mm | - | - | - |
| 1777922060 | 11.11° C | 92% | 1018.6 hPa | 0 mm | - | - | - |
| 1777921281 | 11.11° C | 93% | 1018.6 hPa | 0 mm | - | - | - |
| 1777920501 | 11.11° C | 92% | 1018.5 hPa | 0 mm | - | - | - |
| 1777919720 | 11.11° C | 92% | 1018.5 hPa | 0 mm | - | - | - |
| 1777918941 | 11.11° C | 92% | 1018.4 hPa | 0 mm | - | - | - |
| 1777918160 | 11.67° C | 91% | 1018.4 hPa | 0 mm | - | - | - |
| 1777917382 | 11.67° C | 91% | 1018.3 hPa | 0 mm | - | - | - |
| 1777916602 | 11.67° C | 91% | 1018.2 hPa | 0 mm | - | - | - |
* Rain latest hour (hover to see other rain measurements)
** Current wind speed in m/s (hover to see current wind gust speed)